Portada
METAR-TAF:

METAR-TAF

Aeropuertos :

Aeropuerto de Clermont-Ferrand/Auvergne

Clermont-Ferrand, Francia

latitud: 45-47N, longitud: 003-10E, altitud: 332 m

Observación

El informe se hizo hace 34 minutos, a las 22:30 UTC
Viento 1 kt del sur
Temperatura 18°C
Humedad 73%
Presión 1020 hPa
Visibilidad 10 km o más
sin nubes por debajo de 1500 m y sin presencia de cumulonimbus.

METAR: LFLC 172230Z AUTO 17001KT CAVOK 18/13 Q1020 NOSIG

Hora: 01:04 (23:04 UTC)

Pronóstico

El informe se hizo hace 6 horas y 4 minutos, a las 17:00 UTC
Pronóstico válido del 17 a las 18 UTC al 18 a las 18 UTC
Viento 2 kt con dirección variable
Visibilidad 10 km o más
sin nubes por debajo de 1500 m y sin presencia de cumulonimbus.

TAF: LFLC 171700Z 1718/1818 VRB02KT CAVOK

Observaciones y pronósticos meteorológicos de más de 4000 aeropuertos (mensajes METAR y TAF).

Los puntos amarillos y rojos representan las estaciones disponibles.

Ponga el ratón en el punto deseado para ver el nombre de la estación.

Haga clic para ver las observaciones y los pronósticos meteorológicos.

Para cambiar el mapa : haga clic en los botones verdes con una cruz de color negro para hacer un zoom, en el botón verde con un guión para alejar o en las flechas verdes para mapas adyacentes.


METAR-TAF: